Meath Environmental Platform

Observations for Trim Market St

Time AQI Temp °C Hum % Pres Pa CO μg/m³ H₂S μg/m³ NO μg/m³ NO₂ μg/m³ O₃ μg/m³ SO₂ μg/m³ PM1 μg/m³ PM2.5 μg/m³ PM10 μg/m³
Monday 17 August 2026
05:57 2 17.5 81 2,147,483,647 0.1 0 1.99 4 53.38 0 0 0.64 3.05
05:55 2 17.5 81 2,147,483,647 0.09 0 2 3.87 53.89 0 0 1.12 3.61
05:51 2 17.6 81 2,147,483,647 0.14 0 1.84 4.21 59.58 0 0 1.12 3.61
05:50 2 17.6 81 2,147,483,647 0.08 0 1.84 4.16 52.87 0 0 0.65 3.04
05:49 2 17.6 81 2,147,483,647 0.07 0 1.84 3.61 50.63 0 0 0.65 3.04
05:43 2 17.6 81 2,147,483,647 0.07 0 1.81 3.75 52.66 0 0 1.13 4.16
05:36 2 17.7 81 2,147,483,647 0.06 0 1.83 3.72 52.85 0 0 0.67 3.03
05:35 2 17.7 81 2,147,483,647 0.06 0 1.85 3.86 54.28 0 0 0.67 3.02
05:34 2 17.7 81 2,147,483,647 0.05 0 1.85 3.65 53.04 0 0.71 1.61 4.15
05:33 2 17.7 80 2,147,483,647 0.04 0 1.85 3.29 54.22 0 0 1.15 3.58
05:32 2 17.7 80 2,147,483,647 0.06 0 1.9 4.51 53.48 0 0 1.62 4.14
05:31 2 17.8 80 2,147,483,647 0.04 0 1.93 3.68 55.24 0 0.71 1.62 4.14
05:30 2 17.7 80 2,147,483,647 0.06 0 1.93 4.02 56.75 0 0 1.15 3.58
05:29 2 17.7 80 2,147,483,647 0.05 0 1.93 3.98 51.28 0 0 1.63 4.14
05:28 2 17.8 80 2,147,483,647 0.05 0 1.82 3.49 54.44 0 0 1.15 3.57
05:27 2 17.8 80 2,147,483,647 0.06 0 1.8 3.68 51.39 0 0 1.16 4.13
05:26 2 17.8 80 2,147,483,647 0.05 0 1.75 3.78 52.22 0 0.71 1.63 4.13
05:25 2 17.8 80 2,147,483,647 0.05 0 1.7 3.68 51.71 0 0 1.16 4.13
05:24 2 17.9 80 2,147,483,647 0.05 0 1.67 4.12 58.76 0 0 1.16 4.13
05:23 2 17.8 80 2,147,483,647 0.05 0 1.91 3.13 55.55 0 0 0.69 3